sensor_id;sensor_type;location;lat;lon;timestamp;P1;durP1;ratioP1;P2;durP2;ratioP2
65831;SDS011;52593;42.648;23.332;2022-11-15T00:00:45;43.53;;;17.05;;
65831;SDS011;52593;42.648;23.332;2022-11-15T00:03:12;42.43;;;17.77;;
65831;SDS011;52593;42.648;23.332;2022-11-15T00:05:39;44.22;;;16.42;;
65831;SDS011;52593;42.648;23.332;2022-11-15T00:08:04;43.67;;;17.23;;
65831;SDS011;52593;42.648;23.332;2022-11-15T00:10:29;40.42;;;17.50;;
65831;SDS011;52593;42.648;23.332;2022-11-15T00:12:55;41.93;;;16.83;;
65831;SDS011;52593;42.648;23.332;2022-11-15T00:15:20;43.00;;;17.43;;
65831;SDS011;52593;42.648;23.332;2022-11-15T00:17:48;43.57;;;16.27;;
65831;SDS011;52593;42.648;23.332;2022-11-15T00:20:14;46.10;;;17.27;;
65831;SDS011;52593;42.648;23.332;2022-11-15T00:22:39;44.60;;;17.40;;
65831;SDS011;52593;42.648;23.332;2022-11-15T00:25:05;43.60;;;17.30;;
65831;SDS011;52593;42.648;23.332;2022-11-15T00:27:31;45.60;;;18.33;;
65831;SDS011;52593;42.648;23.332;2022-11-15T00:29:56;45.92;;;18.27;;
65831;SDS011;52593;42.648;23.332;2022-11-15T00:32:22;42.30;;;18.03;;
65831;SDS011;52593;42.648;23.332;2022-11-15T00:34:47;42.97;;;17.27;;
65831;SDS011;52593;42.648;23.332;2022-11-15T00:37:12;45.50;;;18.53;;
65831;SDS011;52593;42.648;23.332;2022-11-15T00:39:38;47.10;;;18.93;;
65831;SDS011;52593;42.648;23.332;2022-11-15T00:42:03;50.07;;;19.00;;
65831;SDS011;52593;42.648;23.332;2022-11-15T00:44:28;48.57;;;19.03;;
65831;SDS011;52593;42.648;23.332;2022-11-15T00:46:54;48.23;;;19.47;;
65831;SDS011;52593;42.648;23.332;2022-11-15T00:49:19;55.20;;;20.53;;
65831;SDS011;52593;42.648;23.332;2022-11-15T00:51:44;52.60;;;21.87;;
65831;SDS011;52593;42.648;23.332;2022-11-15T00:54:10;58.83;;;22.53;;
65831;SDS011;52593;42.648;23.332;2022-11-15T00:56:35;57.53;;;21.13;;
65831;SDS011;52593;42.648;23.332;2022-11-15T00:59:01;57.10;;;21.13;;
65831;SDS011;52593;42.648;23.332;2022-11-15T01:01:26;57.27;;;21.07;;
65831;SDS011;52593;42.648;23.332;2022-11-15T01:03:51;54.80;;;21.17;;
65831;SDS011;52593;42.648;23.332;2022-11-15T01:06:17;61.30;;;22.57;;
65831;SDS011;52593;42.648;23.332;2022-11-15T01:08:42;55.23;;;22.20;;
65831;SDS011;52593;42.648;23.332;2022-11-15T01:11:09;60.50;;;23.73;;
65831;SDS011;52593;42.648;23.332;2022-11-15T01:13:36;56.17;;;23.17;;
65831;SDS011;52593;42.648;23.332;2022-11-15T01:16:10;60.73;;;23.17;;
65831;SDS011;52593;42.648;23.332;2022-11-15T01:18:38;61.08;;;23.88;;
65831;SDS011;52593;42.648;23.332;2022-11-15T01:21:08;59.38;;;23.08;;
65831;SDS011;52593;42.648;23.332;2022-11-15T01:23:35;59.80;;;22.95;;
65831;SDS011;52593;42.648;23.332;2022-11-15T01:26:01;57.80;;;23.00;;
65831;SDS011;52593;42.648;23.332;2022-11-15T01:28:31;54.90;;;23.25;;
65831;SDS011;52593;42.648;23.332;2022-11-15T01:30:58;56.35;;;23.15;;
65831;SDS011;52593;42.648;23.332;2022-11-15T01:33:25;62.80;;;23.20;;
65831;SDS011;52593;42.648;23.332;2022-11-15T01:35:50;57.17;;;23.55;;
65831;SDS011;52593;42.648;23.332;2022-11-15T01:38:16;59.57;;;23.83;;
65831;SDS011;52593;42.648;23.332;2022-11-15T01:40:41;60.27;;;24.13;;
65831;SDS011;52593;42.648;23.332;2022-11-15T01:43:22;63.13;;;24.83;;
65831;SDS011;52593;42.648;23.332;2022-11-15T01:45:55;57.33;;;21.73;;
65831;SDS011;52593;42.648;23.332;2022-11-15T01:48:26;61.08;;;23.40;;
65831;SDS011;52593;42.648;23.332;2022-11-15T01:50:57;55.03;;;22.42;;
65831;SDS011;52593;42.648;23.332;2022-11-15T01:53:24;58.47;;;23.03;;
65831;SDS011;52593;42.648;23.332;2022-11-15T01:55:51;59.08;;;23.48;;
65831;SDS011;52593;42.648;23.332;2022-11-15T01:58:17;53.10;;;23.58;;
65831;SDS011;52593;42.648;23.332;2022-11-15T02:00:43;58.97;;;23.60;;
65831;SDS011;52593;42.648;23.332;2022-11-15T02:03:09;57.97;;;22.50;;
65831;SDS011;52593;42.648;23.332;2022-11-15T02:05:35;58.92;;;21.88;;
65831;SDS011;52593;42.648;23.332;2022-11-15T02:08:02;58.80;;;22.33;;
65831;SDS011;52593;42.648;23.332;2022-11-15T02:10:27;57.65;;;22.40;;
65831;SDS011;52593;42.648;23.332;2022-11-15T02:12:53;55.60;;;20.57;;
65831;SDS011;52593;42.648;23.332;2022-11-15T02:15:21;54.35;;;20.58;;
65831;SDS011;52593;42.648;23.332;2022-11-15T02:20:50;51.33;;;19.55;;
65831;SDS011;52593;42.648;23.332;2022-11-15T02:26:28;47.45;;;20.13;;
65831;SDS011;52593;42.648;23.332;2022-11-15T02:29:13;43.95;;;18.83;;
65831;SDS011;52593;42.648;23.332;2022-11-15T02:32:14;45.78;;;17.88;;
65831;SDS011;52593;42.648;23.332;2022-11-15T02:34:54;50.10;;;18.85;;
65831;SDS011;52593;42.648;23.332;2022-11-15T02:37:46;42.93;;;17.07;;
65831;SDS011;52593;42.648;23.332;2022-11-15T02:40:25;45.33;;;18.55;;
65831;SDS011;52593;42.648;23.332;2022-11-15T02:43:04;45.70;;;17.85;;
65831;SDS011;52593;42.648;23.332;2022-11-15T02:45:54;46.92;;;18.55;;
65831;SDS011;52593;42.648;23.332;2022-11-15T02:48:27;40.40;;;16.55;;
65831;SDS011;52593;42.648;23.332;2022-11-15T02:50:54;44.90;;;17.40;;
65831;SDS011;52593;42.648;23.332;2022-11-15T02:53:23;43.00;;;16.65;;
65831;SDS011;52593;42.648;23.332;2022-11-15T02:55:50;39.08;;;15.65;;
65831;SDS011;52593;42.648;23.332;2022-11-15T03:01:31;39.40;;;15.97;;
65831;SDS011;52593;42.648;23.332;2022-11-15T03:09:50;35.20;;;14.40;;
65831;SDS011;52593;42.648;23.332;2022-11-15T03:15:06;38.70;;;15.10;;
65831;SDS011;52593;42.648;23.332;2022-11-15T03:17:38;39.72;;;14.68;;
65831;SDS011;52593;42.648;23.332;2022-11-15T03:20:14;36.65;;;14.48;;
65831;SDS011;52593;42.648;23.332;2022-11-15T03:22:42;41.85;;;15.32;;
65831;SDS011;52593;42.648;23.332;2022-11-15T03:25:10;35.72;;;14.35;;
65831;SDS011;52593;42.648;23.332;2022-11-15T03:27:43;36.63;;;14.43;;
65831;SDS011;52593;42.648;23.332;2022-11-15T03:30:13;39.22;;;15.32;;
65831;SDS011;52593;42.648;23.332;2022-11-15T03:32:41;35.58;;;15.18;;
65831;SDS011;52593;42.648;23.332;2022-11-15T03:35:38;37.10;;;15.15;;
65831;SDS011;52593;42.648;23.332;2022-11-15T03:38:22;39.45;;;15.63;;
65831;SDS011;52593;42.648;23.332;2022-11-15T03:40:59;38.70;;;16.17;;
65831;SDS011;52593;42.648;23.332;2022-11-15T03:46:17;39.83;;;16.00;;
65831;SDS011;52593;42.648;23.332;2022-11-15T03:48:56;42.78;;;15.70;;
65831;SDS011;52593;42.648;23.332;2022-11-15T03:51:33;38.55;;;15.95;;
65831;SDS011;52593;42.648;23.332;2022-11-15T03:53:58;44.83;;;16.63;;
65831;SDS011;52593;42.648;23.332;2022-11-15T03:56:24;53.10;;;19.27;;
65831;SDS011;52593;42.648;23.332;2022-11-15T03:58:49;56.63;;;18.90;;
65831;SDS011;52593;42.648;23.332;2022-11-15T04:01:15;57.93;;;18.93;;
65831;SDS011;52593;42.648;23.332;2022-11-15T04:03:40;62.40;;;19.77;;
65831;SDS011;52593;42.648;23.332;2022-11-15T04:06:05;69.50;;;20.92;;
65831;SDS011;52593;42.648;23.332;2022-11-15T04:08:31;59.60;;;19.00;;
65831;SDS011;52593;42.648;23.332;2022-11-15T04:10:56;67.50;;;20.03;;
65831;SDS011;52593;42.648;23.332;2022-11-15T04:13:22;66.90;;;19.77;;
65831;SDS011;52593;42.648;23.332;2022-11-15T04:15:47;70.47;;;20.97;;
65831;SDS011;52593;42.648;23.332;2022-11-15T04:18:12;71.13;;;21.23;;
65831;SDS011;52593;42.648;23.332;2022-11-15T04:20:38;72.07;;;21.27;;
65831;SDS011;52593;42.648;23.332;2022-11-15T04:23:22;74.32;;;22.85;;
65831;SDS011;52593;42.648;23.332;2022-11-15T04:26:08;74.90;;;22.37;;
65831;SDS011;52593;42.648;23.332;2022-11-15T04:28:36;76.15;;;22.88;;
65831;SDS011;52593;42.648;23.332;2022-11-15T04:31:24;77.05;;;22.48;;
65831;SDS011;52593;42.648;23.332;2022-11-15T04:33:50;67.60;;;20.97;;
65831;SDS011;52593;42.648;23.332;2022-11-15T04:36:15;73.93;;;22.70;;
65831;SDS011;52593;42.648;23.332;2022-11-15T04:38:59;69.70;;;22.00;;
65831;SDS011;52593;42.648;23.332;2022-11-15T04:41:24;72.87;;;22.83;;
65831;SDS011;52593;42.648;23.332;2022-11-15T04:43:49;77.57;;;26.87;;
65831;SDS011;52593;42.648;23.332;2022-11-15T04:46:15;78.90;;;25.38;;
65831;SDS011;52593;42.648;23.332;2022-11-15T04:48:40;74.10;;;24.97;;
65831;SDS011;52593;42.648;23.332;2022-11-15T04:51:06;88.60;;;25.27;;
65831;SDS011;52593;42.648;23.332;2022-11-15T04:53:31;79.57;;;23.90;;
65831;SDS011;52593;42.648;23.332;2022-11-15T04:55:56;75.33;;;25.13;;
65831;SDS011;52593;42.648;23.332;2022-11-15T04:58:22;78.20;;;22.83;;
65831;SDS011;52593;42.648;23.332;2022-11-15T05:00:47;58.23;;;20.77;;
65831;SDS011;52593;42.648;23.332;2022-11-15T05:03:13;44.37;;;17.37;;
65831;SDS011;52593;42.648;23.332;2022-11-15T05:05:57;44.78;;;16.65;;
65831;SDS011;52593;42.648;23.332;2022-11-15T05:08:22;38.43;;;15.67;;
65831;SDS011;52593;42.648;23.332;2022-11-15T05:10:48;37.35;;;16.05;;
65831;SDS011;52593;42.648;23.332;2022-11-15T05:13:13;42.03;;;15.27;;
65831;SDS011;52593;42.648;23.332;2022-11-15T05:15:38;35.70;;;15.30;;
65831;SDS011;52593;42.648;23.332;2022-11-15T05:18:04;36.13;;;15.53;;
65831;SDS011;52593;42.648;23.332;2022-11-15T05:20:29;32.73;;;14.40;;
65831;SDS011;52593;42.648;23.332;2022-11-15T05:22:54;34.03;;;14.13;;
65831;SDS011;52593;42.648;23.332;2022-11-15T05:25:21;39.97;;;15.60;;
65831;SDS011;52593;42.648;23.332;2022-11-15T05:27:46;36.92;;;15.63;;
65831;SDS011;52593;42.648;23.332;2022-11-15T05:30:12;39.40;;;16.17;;
65831;SDS011;52593;42.648;23.332;2022-11-15T05:32:37;39.00;;;15.90;;
65831;SDS011;52593;42.648;23.332;2022-11-15T05:35:03;40.73;;;15.90;;
65831;SDS011;52593;42.648;23.332;2022-11-15T05:37:32;35.25;;;15.15;;
65831;SDS011;52593;42.648;23.332;2022-11-15T05:39:57;37.93;;;14.87;;
65831;SDS011;52593;42.648;23.332;2022-11-15T05:42:23;36.37;;;14.27;;
65831;SDS011;52593;42.648;23.332;2022-11-15T05:44:51;44.30;;;15.45;;
65831;SDS011;52593;42.648;23.332;2022-11-15T05:47:17;41.67;;;14.93;;
65831;SDS011;52593;42.648;23.332;2022-11-15T05:49:46;39.10;;;15.18;;
65831;SDS011;52593;42.648;23.332;2022-11-15T05:52:14;46.38;;;15.55;;
65831;SDS011;52593;42.648;23.332;2022-11-15T05:54:42;45.53;;;15.10;;
65831;SDS011;52593;42.648;23.332;2022-11-15T05:57:08;40.77;;;16.63;;
65831;SDS011;52593;42.648;23.332;2022-11-15T05:59:33;43.33;;;14.80;;
65831;SDS011;52593;42.648;23.332;2022-11-15T06:02:00;47.55;;;16.00;;
65831;SDS011;52593;42.648;23.332;2022-11-15T06:04:26;49.47;;;16.20;;
65831;SDS011;52593;42.648;23.332;2022-11-15T06:06:51;47.47;;;16.00;;
65831;SDS011;52593;42.648;23.332;2022-11-15T06:09:17;58.00;;;21.47;;
65831;SDS011;52593;42.648;23.332;2022-11-15T06:11:42;52.50;;;18.60;;
65831;SDS011;52593;42.648;23.332;2022-11-15T06:14:07;52.03;;;16.57;;
65831;SDS011;52593;42.648;23.332;2022-11-15T06:16:33;58.70;;;18.37;;
65831;SDS011;52593;42.648;23.332;2022-11-15T06:18:58;65.30;;;19.90;;
65831;SDS011;52593;42.648;23.332;2022-11-15T06:21:23;58.80;;;18.87;;
65831;SDS011;52593;42.648;23.332;2022-11-15T06:23:49;69.00;;;21.43;;
65831;SDS011;52593;42.648;23.332;2022-11-15T06:26:14;71.22;;;20.52;;
65831;SDS011;52593;42.648;23.332;2022-11-15T06:28:40;72.20;;;20.87;;
65831;SDS011;52593;42.648;23.332;2022-11-15T06:31:06;64.83;;;21.17;;
65831;SDS011;52593;42.648;23.332;2022-11-15T06:33:35;71.60;;;20.95;;
65831;SDS011;52593;42.648;23.332;2022-11-15T06:36:05;67.97;;;21.70;;
65831;SDS011;52593;42.648;23.332;2022-11-15T06:38:32;63.67;;;20.27;;
65831;SDS011;52593;42.648;23.332;2022-11-15T06:41:04;68.10;;;20.63;;
65831;SDS011;52593;42.648;23.332;2022-11-15T06:43:32;65.68;;;18.95;;
65831;SDS011;52593;42.648;23.332;2022-11-15T06:45:59;68.90;;;20.33;;
65831;SDS011;52593;42.648;23.332;2022-11-15T06:48:25;68.45;;;20.77;;
65831;SDS011;52593;42.648;23.332;2022-11-15T06:50:54;65.80;;;22.02;;
65831;SDS011;52593;42.648;23.332;2022-11-15T06:53:21;79.13;;;21.57;;
65831;SDS011;52593;42.648;23.332;2022-11-15T06:55:46;73.15;;;21.45;;
65831;SDS011;52593;42.648;23.332;2022-11-15T06:58:12;76.77;;;22.17;;
65831;SDS011;52593;42.648;23.332;2022-11-15T07:00:37;75.90;;;22.70;;
65831;SDS011;52593;42.648;23.332;2022-11-15T07:03:03;75.57;;;22.67;;
65831;SDS011;52593;42.648;23.332;2022-11-15T07:05:28;76.97;;;22.88;;
65831;SDS011;52593;42.648;23.332;2022-11-15T07:07:54;83.72;;;23.85;;
65831;SDS011;52593;42.648;23.332;2022-11-15T07:10:21;84.43;;;24.37;;
65831;SDS011;52593;42.648;23.332;2022-11-15T07:12:49;72.00;;;22.30;;
65831;SDS011;52593;42.648;23.332;2022-11-15T07:15:18;84.10;;;23.73;;
65831;SDS011;52593;42.648;23.332;2022-11-15T07:17:44;75.73;;;23.80;;
65831;SDS011;52593;42.648;23.332;2022-11-15T07:20:10;84.90;;;25.83;;
65831;SDS011;52593;42.648;23.332;2022-11-15T07:22:36;97.03;;;28.00;;
65831;SDS011;52593;42.648;23.332;2022-11-15T07:25:02;91.95;;;28.92;;
65831;SDS011;52593;42.648;23.332;2022-11-15T07:27:27;81.83;;;22.20;;
65831;SDS011;52593;42.648;23.332;2022-11-15T07:29:53;74.20;;;22.43;;
65831;SDS011;52593;42.648;23.332;2022-11-15T07:32:18;63.83;;;22.50;;
65831;SDS011;52593;42.648;23.332;2022-11-15T07:34:43;61.67;;;21.87;;
65831;SDS011;52593;42.648;23.332;2022-11-15T07:37:11;72.18;;;26.40;;
65831;SDS011;52593;42.648;23.332;2022-11-15T07:39:36;68.73;;;23.00;;
65831;SDS011;52593;42.648;23.332;2022-11-15T07:42:02;64.17;;;22.07;;
65831;SDS011;52593;42.648;23.332;2022-11-15T07:44:46;71.73;;;21.23;;
65831;SDS011;52593;42.648;23.332;2022-11-15T07:47:11;76.80;;;23.48;;
65831;SDS011;52593;42.648;23.332;2022-11-15T07:49:37;75.97;;;23.07;;
65831;SDS011;52593;42.648;23.332;2022-11-15T07:52:02;78.63;;;25.03;;
65831;SDS011;52593;42.648;23.332;2022-11-15T07:54:27;99.63;;;28.30;;
65831;SDS011;52593;42.648;23.332;2022-11-15T07:56:53;92.23;;;25.93;;
65831;SDS011;52593;42.648;23.332;2022-11-15T07:59:19;88.47;;;25.85;;
65831;SDS011;52593;42.648;23.332;2022-11-15T08:01:44;76.97;;;24.70;;
65831;SDS011;52593;42.648;23.332;2022-11-15T08:04:10;74.43;;;25.17;;
65831;SDS011;52593;42.648;23.332;2022-11-15T08:06:36;80.27;;;25.73;;
65831;SDS011;52593;42.648;23.332;2022-11-15T08:09:02;82.25;;;25.67;;
65831;SDS011;52593;42.648;23.332;2022-11-15T08:11:27;84.17;;;24.90;;
65831;SDS011;52593;42.648;23.332;2022-11-15T08:13:52;85.03;;;24.60;;
65831;SDS011;52593;42.648;23.332;2022-11-15T08:16:18;95.07;;;27.70;;
65831;SDS011;52593;42.648;23.332;2022-11-15T08:18:43;94.00;;;27.10;;
65831;SDS011;52593;42.648;23.332;2022-11-15T08:21:09;88.85;;;25.92;;
65831;SDS011;52593;42.648;23.332;2022-11-15T08:23:37;91.00;;;26.23;;
65831;SDS011;52593;42.648;23.332;2022-11-15T08:26:03;96.03;;;32.13;;
65831;SDS011;52593;42.648;23.332;2022-11-15T08:28:30;89.80;;;26.90;;
65831;SDS011;52593;42.648;23.332;2022-11-15T08:30:56;94.03;;;29.27;;
65831;SDS011;52593;42.648;23.332;2022-11-15T08:33:21;100.50;;;29.00;;
65831;SDS011;52593;42.648;23.332;2022-11-15T08:35:46;98.87;;;27.20;;
65831;SDS011;52593;42.648;23.332;2022-11-15T08:38:13;106.90;;;29.85;;
65831;SDS011;52593;42.648;23.332;2022-11-15T08:40:38;92.77;;;27.10;;
65831;SDS011;52593;42.648;23.332;2022-11-15T08:43:04;99.20;;;29.40;;
65831;SDS011;52593;42.648;23.332;2022-11-15T08:45:30;108.65;;;29.70;;
65831;SDS011;52593;42.648;23.332;2022-11-15T08:47:56;115.03;;;30.33;;
65831;SDS011;52593;42.648;23.332;2022-11-15T08:50:22;106.57;;;30.42;;
65831;SDS011;52593;42.648;23.332;2022-11-15T08:52:47;110.13;;;30.13;;
65831;SDS011;52593;42.648;23.332;2022-11-15T08:55:13;103.50;;;30.27;;
65831;SDS011;52593;42.648;23.332;2022-11-15T08:57:39;97.97;;;29.02;;
65831;SDS011;52593;42.648;23.332;2022-11-15T09:00:05;91.33;;;29.00;;
65831;SDS011;52593;42.648;23.332;2022-11-15T09:02:31;93.75;;;29.15;;
65831;SDS011;52593;42.648;23.332;2022-11-15T09:04:56;93.10;;;29.10;;
65831;SDS011;52593;42.648;23.332;2022-11-15T09:07:22;101.40;;;29.90;;
65831;SDS011;52593;42.648;23.332;2022-11-15T09:09:47;81.32;;;28.00;;
65831;SDS011;52593;42.648;23.332;2022-11-15T09:12:12;88.47;;;28.70;;
65831;SDS011;52593;42.648;23.332;2022-11-15T09:14:38;91.87;;;26.90;;
65831;SDS011;52593;42.648;23.332;2022-11-15T09:17:03;77.50;;;24.80;;
65831;SDS011;52593;42.648;23.332;2022-11-15T09:19:33;82.38;;;25.55;;
65831;SDS011;52593;42.648;23.332;2022-11-15T09:21:58;90.82;;;29.00;;
65831;SDS011;52593;42.648;23.332;2022-11-15T09:24:24;98.73;;;29.37;;
65831;SDS011;52593;42.648;23.332;2022-11-15T09:26:50;88.20;;;28.73;;
65831;SDS011;52593;42.648;23.332;2022-11-15T09:29:16;104.65;;;31.02;;
65831;SDS011;52593;42.648;23.332;2022-11-15T09:31:42;92.63;;;29.00;;
65831;SDS011;52593;42.648;23.332;2022-11-15T09:34:08;105.63;;;30.67;;
65831;SDS011;52593;42.648;23.332;2022-11-15T09:36:33;97.47;;;30.97;;
65831;SDS011;52593;42.648;23.332;2022-11-15T09:38:59;101.45;;;29.73;;
65831;SDS011;52593;42.648;23.332;2022-11-15T09:41:34;96.90;;;30.00;;
65831;SDS011;52593;42.648;23.332;2022-11-15T09:49:43;93.53;;;31.07;;
65831;SDS011;52593;42.648;23.332;2022-11-15T09:52:08;97.03;;;30.45;;
65831;SDS011;52593;42.648;23.332;2022-11-15T09:54:36;96.68;;;29.73;;
65831;SDS011;52593;42.648;23.332;2022-11-15T09:57:17;93.45;;;30.52;;
65831;SDS011;52593;42.648;23.332;2022-11-15T10:05:30;89.75;;;31.33;;
65831;SDS011;52593;42.648;23.332;2022-11-15T10:10:39;91.72;;;31.95;;
65831;SDS011;52593;42.648;23.332;2022-11-15T10:13:13;85.17;;;29.83;;
65831;SDS011;52593;42.648;23.332;2022-11-15T10:15:50;97.63;;;30.88;;
65831;SDS011;52593;42.648;23.332;2022-11-15T10:21:21;105.78;;;31.88;;
65831;SDS011;52593;42.648;23.332;2022-11-15T10:23:52;96.82;;;30.73;;
65831;SDS011;52593;42.648;23.332;2022-11-15T10:26:18;103.77;;;32.10;;
65831;SDS011;52593;42.648;23.332;2022-11-15T10:28:43;96.72;;;32.40;;
65831;SDS011;52593;42.648;23.332;2022-11-15T10:31:22;94.80;;;31.93;;
65831;SDS011;52593;42.648;23.332;2022-11-15T10:33:50;99.93;;;32.47;;
65831;SDS011;52593;42.648;23.332;2022-11-15T10:36:18;98.60;;;31.33;;
65831;SDS011;52593;42.648;23.332;2022-11-15T10:38:55;95.95;;;32.35;;
65831;SDS011;52593;42.648;23.332;2022-11-15T10:41:32;93.72;;;32.13;;
65831;SDS011;52593;42.648;23.332;2022-11-15T10:46:32;91.65;;;31.83;;
65831;SDS011;52593;42.648;23.332;2022-11-15T10:49:11;82.17;;;29.67;;
65831;SDS011;52593;42.648;23.332;2022-11-15T10:51:48;81.10;;;30.15;;
65831;SDS011;52593;42.648;23.332;2022-11-15T10:54:30;77.65;;;29.17;;
65831;SDS011;52593;42.648;23.332;2022-11-15T10:57:06;84.28;;;30.63;;
65831;SDS011;52593;42.648;23.332;2022-11-15T10:59:37;75.38;;;29.05;;
65831;SDS011;52593;42.648;23.332;2022-11-15T11:02:20;83.70;;;29.70;;
65831;SDS011;52593;42.648;23.332;2022-11-15T11:05:27;77.88;;;28.58;;
65831;SDS011;52593;42.648;23.332;2022-11-15T11:08:35;77.88;;;28.35;;
65831;SDS011;52593;42.648;23.332;2022-11-15T11:10:54;77.18;;;28.73;;
65831;SDS011;52593;42.648;23.332;2022-11-15T11:21:17;79.00;;;29.45;;
65831;SDS011;52593;42.648;23.332;2022-11-15T11:23:58;77.63;;;30.48;;
65831;SDS011;52593;42.648;23.332;2022-11-15T11:27:04;85.85;;;31.65;;
65831;SDS011;52593;42.648;23.332;2022-11-15T11:35:34;77.78;;;31.40;;
65831;SDS011;52593;42.648;23.332;2022-11-15T11:49:36;76.63;;;31.15;;
65831;SDS011;52593;42.648;23.332;2022-11-15T11:57:39;73.23;;;29.23;;
65831;SDS011;52593;42.648;23.332;2022-11-15T12:00:20;77.10;;;30.77;;
65831;SDS011;52593;42.648;23.332;2022-11-15T12:03:11;79.00;;;29.52;;
65831;SDS011;52593;42.648;23.332;2022-11-15T12:06:02;84.70;;;32.53;;
65831;SDS011;52593;42.648;23.332;2022-11-15T12:08:39;75.35;;;29.77;;
65831;SDS011;52593;42.648;23.332;2022-11-15T12:14:16;77.55;;;29.83;;
65831;SDS011;52593;42.648;23.332;2022-11-15T12:16:50;75.93;;;27.90;;
65831;SDS011;52593;42.648;23.332;2022-11-15T12:19:16;82.07;;;30.48;;
65831;SDS011;52593;42.648;23.332;2022-11-15T12:22:42;75.37;;;29.97;;
65831;SDS011;52593;42.648;23.332;2022-11-15T12:24:48;77.55;;;30.65;;
65831;SDS011;52593;42.648;23.332;2022-11-15T12:27:42;82.53;;;29.55;;
65831;SDS011;52593;42.648;23.332;2022-11-15T12:30:15;72.07;;;28.53;;
65831;SDS011;52593;42.648;23.332;2022-11-15T12:32:50;77.93;;;29.13;;
65831;SDS011;52593;42.648;23.332;2022-11-15T12:35:35;80.82;;;30.85;;
65831;SDS011;52593;42.648;23.332;2022-11-15T12:38:03;76.40;;;29.55;;
65831;SDS011;52593;42.648;23.332;2022-11-15T12:40:31;85.57;;;31.73;;
65831;SDS011;52593;42.648;23.332;2022-11-15T12:43:00;83.50;;;29.73;;
65831;SDS011;52593;42.648;23.332;2022-11-15T12:45:48;82.20;;;29.65;;
65831;SDS011;52593;42.648;23.332;2022-11-15T12:56:08;80.65;;;32.58;;
65831;SDS011;52593;42.648;23.332;2022-11-15T13:06:48;73.65;;;28.80;;
65831;SDS011;52593;42.648;23.332;2022-11-15T13:11:59;71.68;;;28.58;;
65831;SDS011;52593;42.648;23.332;2022-11-15T13:14:40;62.77;;;26.43;;
65831;SDS011;52593;42.648;23.332;2022-11-15T13:30:40;64.20;;;27.38;;
65831;SDS011;52593;42.648;23.332;2022-11-15T13:33:19;70.95;;;27.50;;
65831;SDS011;52593;42.648;23.332;2022-11-15T13:35:49;67.85;;;27.50;;
65831;SDS011;52593;42.648;23.332;2022-11-15T13:38:18;65.13;;;28.15;;
65831;SDS011;52593;42.648;23.332;2022-11-15T13:40:54;66.63;;;28.23;;
65831;SDS011;52593;42.648;23.332;2022-11-15T13:46:03;63.90;;;27.70;;
65831;SDS011;52593;42.648;23.332;2022-11-15T13:48:35;64.43;;;27.85;;
65831;SDS011;52593;42.648;23.332;2022-11-15T13:51:02;61.85;;;26.85;;
65831;SDS011;52593;42.648;23.332;2022-11-15T13:53:30;75.57;;;30.38;;
65831;SDS011;52593;42.648;23.332;2022-11-15T13:55:58;64.35;;;28.70;;
65831;SDS011;52593;42.648;23.332;2022-11-15T13:58:24;60.87;;;26.03;;
65831;SDS011;52593;42.648;23.332;2022-11-15T14:00:59;64.10;;;27.88;;
65831;SDS011;52593;42.648;23.332;2022-11-15T14:03:27;73.95;;;30.60;;
65831;SDS011;52593;42.648;23.332;2022-11-15T14:06:11;71.68;;;29.52;;
65831;SDS011;52593;42.648;23.332;2022-11-15T14:08:40;66.97;;;28.80;;
65831;SDS011;52593;42.648;23.332;2022-11-15T14:13:32;67.00;;;27.30;;
65831;SDS011;52593;42.648;23.332;2022-11-15T14:16:12;63.27;;;27.33;;
65831;SDS011;52593;42.648;23.332;2022-11-15T14:21:10;63.57;;;27.10;;
65831;SDS011;52593;42.648;23.332;2022-11-15T14:23:36;72.95;;;27.63;;
65831;SDS011;52593;42.648;23.332;2022-11-15T14:26:02;63.43;;;25.73;;
65831;SDS011;52593;42.648;23.332;2022-11-15T14:28:33;63.20;;;27.53;;
65831;SDS011;52593;42.648;23.332;2022-11-15T14:31:06;67.30;;;27.88;;
65831;SDS011;52593;42.648;23.332;2022-11-15T14:33:37;64.50;;;26.15;;
65831;SDS011;52593;42.648;23.332;2022-11-15T14:36:11;66.93;;;27.48;;
65831;SDS011;52593;42.648;23.332;2022-11-15T14:38:38;69.65;;;27.48;;
65831;SDS011;52593;42.648;23.332;2022-11-15T14:41:04;74.57;;;28.27;;
65831;SDS011;52593;42.648;23.332;2022-11-15T14:43:30;78.38;;;29.20;;
65831;SDS011;52593;42.648;23.332;2022-11-15T14:45:56;81.77;;;30.77;;
65831;SDS011;52593;42.648;23.332;2022-11-15T14:48:25;79.15;;;31.90;;
65831;SDS011;52593;42.648;23.332;2022-11-15T14:51:24;73.80;;;29.07;;
65831;SDS011;52593;42.648;23.332;2022-11-15T14:53:49;78.45;;;30.10;;
65831;SDS011;52593;42.648;23.332;2022-11-15T14:56:15;91.23;;;35.30;;
65831;SDS011;52593;42.648;23.332;2022-11-15T14:58:41;86.18;;;32.92;;
65831;SDS011;52593;42.648;23.332;2022-11-15T15:01:18;85.82;;;31.90;;
65831;SDS011;52593;42.648;23.332;2022-11-15T15:03:45;84.50;;;32.92;;
65831;SDS011;52593;42.648;23.332;2022-11-15T15:06:11;86.90;;;32.63;;
65831;SDS011;52593;42.648;23.332;2022-11-15T15:08:38;80.13;;;34.85;;
65831;SDS011;52593;42.648;23.332;2022-11-15T15:11:07;89.13;;;33.50;;
65831;SDS011;52593;42.648;23.332;2022-11-15T15:13:37;83.13;;;32.83;;
65831;SDS011;52593;42.648;23.332;2022-11-15T15:16:03;87.15;;;31.48;;
65831;SDS011;52593;42.648;23.332;2022-11-15T15:18:28;79.43;;;30.57;;
65831;SDS011;52593;42.648;23.332;2022-11-15T15:20:55;86.77;;;32.83;;
65831;SDS011;52593;42.648;23.332;2022-11-15T15:23:24;78.57;;;30.98;;
65831;SDS011;52593;42.648;23.332;2022-11-15T15:25:54;83.78;;;31.45;;
65831;SDS011;52593;42.648;23.332;2022-11-15T15:28:19;78.17;;;30.90;;
65831;SDS011;52593;42.648;23.332;2022-11-15T15:30:45;89.22;;;31.30;;
65831;SDS011;52593;42.648;23.332;2022-11-15T15:33:10;72.27;;;29.43;;
65831;SDS011;52593;42.648;23.332;2022-11-15T15:35:35;78.43;;;30.57;;
65831;SDS011;52593;42.648;23.332;2022-11-15T15:38:01;86.07;;;32.13;;
65831;SDS011;52593;42.648;23.332;2022-11-15T15:40:28;90.97;;;34.20;;
65831;SDS011;52593;42.648;23.332;2022-11-15T15:42:55;94.20;;;34.40;;
65831;SDS011;52593;42.648;23.332;2022-11-15T15:45:20;86.80;;;33.77;;
65831;SDS011;52593;42.648;23.332;2022-11-15T15:47:46;103.28;;;37.85;;
65831;SDS011;52593;42.648;23.332;2022-11-15T15:50:24;100.07;;;38.13;;
65831;SDS011;52593;42.648;23.332;2022-11-15T15:52:50;97.78;;;36.53;;
65831;SDS011;52593;42.648;23.332;2022-11-15T15:55:17;107.82;;;36.42;;
65831;SDS011;52593;42.648;23.332;2022-11-15T15:57:43;97.88;;;35.70;;
65831;SDS011;52593;42.648;23.332;2022-11-15T16:00:08;125.40;;;41.53;;
65831;SDS011;52593;42.648;23.332;2022-11-15T16:02:35;107.15;;;37.90;;
65831;SDS011;52593;42.648;23.332;2022-11-15T16:05:00;108.97;;;38.13;;
65831;SDS011;52593;42.648;23.332;2022-11-15T16:07:26;101.53;;;37.10;;
65831;SDS011;52593;42.648;23.332;2022-11-15T16:09:53;113.72;;;39.88;;
65831;SDS011;52593;42.648;23.332;2022-11-15T16:12:25;112.15;;;39.97;;
65831;SDS011;52593;42.648;23.332;2022-11-15T16:14:51;94.22;;;37.20;;